Time;durP1;ratioP1;P1;durP2;ratioP2;P2;SDS_P1;SDS_P2;PMS_P1;PMS_P2;Temp;Humidity;BMP_temperature;BMP_pressure;BME280_temperature;BME280_humidity;BME280_pressure;Samples;Min_cycle;Max_cycle;Signal;HPM_P1;HPM_P2
2022/12/08 00:01:44;;;;;;;20.17;15.17;;;1.50;99.90;;;;;;5075022;28;20207;-78
2022/12/08 00:04:13;;;;;;;19.77;15.27;;;1.60;99.90;;;;;;5073731;28;20549;-79
2022/12/08 00:09:33;;;;;;;19.60;14.67;;;1.50;99.90;;;;;;5089679;28;20213;-77
2022/12/08 00:12:08;;;;;;;21.87;15.30;;;1.60;99.90;;;;;;5093426;28;20214;-78
2022/12/08 00:14:38;;;;;;;20.77;15.13;;;1.60;99.90;;;;;;5093708;28;20203;-78
2022/12/08 00:17:08;;;;;;;20.10;14.43;;;1.60;99.90;;;;;;5076538;28;20223;-79
2022/12/08 00:19:37;;;;;;;20.13;15.10;;;1.60;99.90;;;;;;5073011;28;20212;-79
2022/12/08 00:22:06;;;;;;;20.03;14.97;;;1.60;99.90;;;;;;5073217;28;20207;-79
2022/12/08 00:24:38;;;;;;;20.83;14.83;;;1.60;99.90;;;;;;5073169;28;20674;-79
2022/12/08 00:27:07;;;;;;;19.30;14.63;;;1.60;99.90;;;;;;5072877;28;20665;-78
2022/12/08 00:29:35;;;;;;;19.43;14.60;;;1.60;99.90;;;;;;5073235;28;20207;-79
2022/12/08 00:32:03;;;;;;;18.47;14.23;;;1.60;99.90;;;;;;5072493;28;20227;-79
2022/12/08 00:34:32;;;;;;;18.37;14.40;;;1.60;99.90;;;;;;5090778;28;20210;-79
2022/12/08 00:37:00;;;;;;;20.13;14.30;;;1.60;99.90;;;;;;5093025;28;20653;-78
2022/12/08 00:39:29;;;;;;;18.30;14.17;;;1.50;99.90;;;;;;5092886;28;20203;-78
2022/12/08 00:42:13;;;;;;;19.37;14.70;;;1.50;99.90;;;;;;5092851;28;20195;-79
2022/12/08 00:44:42;;;;;;;20.57;14.83;;;1.50;99.90;;;;;;5092997;28;20191;-77
2022/12/08 00:47:11;;;;;;;20.57;14.40;;;1.40;99.90;;;;;;5093149;28;20568;-79
2022/12/08 00:49:40;;;;;;;18.43;14.30;;;1.40;99.90;;;;;;5093048;28;20626;-78
2022/12/08 00:52:08;;;;;;;19.43;14.33;;;1.40;99.90;;;;;;5092549;28;20241;-78
2022/12/08 00:54:37;;;;;;;18.97;13.93;;;1.40;99.90;;;;;;5093047;28;20217;-78
2022/12/08 00:57:06;;;;;;;19.97;14.73;;;1.40;99.90;;;;;;5092881;28;20210;-79
2022/12/08 00:59:34;;;;;;;18.30;14.57;;;1.40;99.90;;;;;;5092820;28;20194;-79
2022/12/08 01:02:02;;;;;;;23.43;15.33;;;1.40;99.90;;;;;;5092498;28;20210;-79
2022/12/08 01:04:30;;;;;;;19.27;14.80;;;1.40;99.90;;;;;;5092917;28;20206;-77
2022/12/08 01:06:58;;;;;;;19.67;13.90;;;1.40;99.90;;;;;;5093008;28;20218;-77
2022/12/08 01:09:26;;;;;;;19.30;14.23;;;1.30;99.90;;;;;;5092695;28;20203;-75
2022/12/08 01:11:55;;;;;;;19.47;14.77;;;1.40;99.90;;;;;;5075772;28;20227;-75
2022/12/08 01:14:24;;;;;;;20.43;15.63;;;1.30;99.90;;;;;;5072141;28;20665;-77
2022/12/08 01:16:52;;;;;;;20.33;14.90;;;1.40;99.90;;;;;;5072951;28;20212;-77
2022/12/08 01:19:21;;;;;;;21.40;15.07;;;1.30;99.90;;;;;;5073650;28;20218;-78
2022/12/08 01:21:49;;;;;;;20.57;14.23;;;1.30;99.90;;;;;;5072144;28;20207;-80
2022/12/08 01:24:19;;;;;;;22.03;14.80;;;1.30;99.90;;;;;;5076024;28;20689;-79
2022/12/08 01:26:49;;;;;;;21.90;15.53;;;1.30;99.90;;;;;;5098526;28;20210;-75
2022/12/08 01:29:17;;;;;;;20.03;15.20;;;1.30;99.90;;;;;;5098824;28;20207;-76
2022/12/08 01:31:47;;;;;;;19.73;14.83;;;1.30;99.90;;;;;;5098616;28;20233;-77
2022/12/08 01:34:15;;;;;;;19.57;14.83;;;1.20;99.90;;;;;;5092758;28;20212;-74
2022/12/08 01:36:43;;;;;;;20.27;15.60;;;1.30;99.90;;;;;;5078081;28;20208;-75
2022/12/08 01:39:15;;;;;;;19.37;14.57;;;1.30;99.90;;;;;;5072553;28;20212;-77
2022/12/08 01:41:44;;;;;;;18.50;15.13;;;1.30;99.90;;;;;;5072416;28;20190;-79
2022/12/08 01:44:53;;;;;;;21.33;14.97;;;1.20;99.90;;;;;;5082622;28;20210;-75
2022/12/08 01:47:24;;;;;;;21.80;15.83;;;1.30;99.90;;;;;;5095794;28;20529;-77
2022/12/08 01:49:53;;;;;;;21.90;15.30;;;1.30;99.90;;;;;;5102188;28;20236;-77
2022/12/08 01:52:24;;;;;;;18.83;14.97;;;1.30;99.90;;;;;;5096659;28;20227;-79
2022/12/08 01:54:56;;;;;;;18.20;14.80;;;1.30;99.90;;;;;;5092297;28;20191;-77
2022/12/08 01:57:28;;;;;;;18.87;14.73;;;1.30;99.90;;;;;;5092679;28;20203;-77
2022/12/08 02:00:02;;;;;;;19.80;15.37;;;1.20;99.90;;;;;;5091893;28;20683;-80
2022/12/08 02:02:39;;;;;;;20.87;15.07;;;1.20;99.90;;;;;;5071577;28;20207;-77
2022/12/08 02:05:09;;;;;;;18.80;14.30;;;1.30;99.90;;;;;;5072127;28;20191;-80
2022/12/08 02:07:38;;;;;;;19.70;15.10;;;1.20;99.90;;;;;;5071635;28;20212;-75
2022/12/08 02:10:07;;;;;;;19.80;14.60;;;1.20;99.90;;;;;;5079374;28;20205;-79
2022/12/08 02:12:35;;;;;;;21.30;14.97;;;1.20;99.90;;;;;;5091720;28;20226;-78
2022/12/08 02:15:04;;;;;;;19.27;14.67;;;1.20;99.90;;;;;;5098882;28;20755;-78
2022/12/08 02:17:49;;;;;;;19.83;14.83;;;1.20;99.90;;;;;;5092062;28;20207;-77
2022/12/08 02:20:45;;;;;;;19.77;15.30;;;1.20;99.90;;;;;;5092669;28;20221;-80
2022/12/08 02:23:24;;;;;;;19.70;14.93;;;1.10;99.90;;;;;;5091935;28;20704;-78
2022/12/08 02:26:43;;;;;;;25.47;15.10;;;1.10;99.90;;;;;;5093141;28;20585;-79
2022/12/08 02:29:34;;;;;;;18.50;14.83;;;1.10;99.90;;;;;;5047403;28;20209;-77
2022/12/08 02:32:23;;;;;;;18.10;14.43;;;1.10;99.90;;;;;;5050724;28;20623;-76
2022/12/08 02:34:59;;;;;;;19.23;14.83;;;1.10;99.90;;;;;;5103173;28;20472;-76
2022/12/08 02:37:32;;;;;;;19.20;14.43;;;1.00;99.90;;;;;;5098184;28;20199;-77
2022/12/08 02:40:07;;;;;;;19.13;14.30;;;1.00;99.90;;;;;;5088076;28;20203;-76
2022/12/08 02:42:42;;;;;;;23.03;14.93;;;1.00;99.90;;;;;;5089049;28;20699;-76
2022/12/08 02:45:14;;;;;;;19.10;14.70;;;0.90;99.90;;;;;;5084194;28;20202;-76
2022/12/08 02:47:43;;;;;;;21.87;14.67;;;0.90;99.90;;;;;;5098842;28;20192;-74
2022/12/08 02:50:14;;;;;;;20.03;15.00;;;0.80;99.90;;;;;;5098158;28;20233;-76
2022/12/08 02:52:44;;;;;;;18.57;14.40;;;0.80;99.90;;;;;;5096135;28;20257;-75
2022/12/08 02:55:26;;;;;;;20.07;15.00;;;0.70;99.90;;;;;;5099626;28;20197;-76
2022/12/08 02:58:22;;;;;;;19.93;14.40;;;0.70;99.90;;;;;;5098313;28;20205;-77
2022/12/08 03:01:03;;;;;;;19.97;14.90;;;0.70;99.90;;;;;;5095557;28;20460;-75
2022/12/08 03:03:52;;;;;;;23.53;14.53;;;0.70;99.90;;;;;;5078228;28;20195;-76
2022/12/08 03:06:28;;;;;;;19.73;14.47;;;0.60;99.90;;;;;;5077934;28;20437;-74
2022/12/08 03:08:59;;;;;;;19.80;14.73;;;0.60;99.90;;;;;;5076615;28;20672;-73
2022/12/08 03:11:34;;;;;;;19.70;14.93;;;0.60;99.90;;;;;;5077340;28;20207;-76
2022/12/08 03:14:07;;;;;;;19.50;14.23;;;0.60;99.90;;;;;;5077400;28;20560;-74
2022/12/08 03:16:39;;;;;;;20.43;14.43;;;0.50;99.90;;;;;;5078562;28;20192;-75
2022/12/08 03:19:11;;;;;;;19.57;14.23;;;0.50;99.90;;;;;;5080987;28;21018;-77
2022/12/08 03:21:41;;;;;;;18.03;14.47;;;0.50;99.90;;;;;;5098115;28;20585;-76
2022/12/08 03:24:10;;;;;;;20.67;15.27;;;0.50;99.90;;;;;;5097747;28;20203;-75
2022/12/08 03:26:43;;;;;;;19.23;14.57;;;0.40;99.90;;;;;;5097996;28;20215;-76
2022/12/08 03:29:12;;;;;;;18.77;14.57;;;0.40;99.90;;;;;;5098486;28;20603;-76
2022/12/08 03:31:49;;;;;;;21.10;15.40;;;0.50;99.90;;;;;;5100121;28;20651;-76
2022/12/08 03:34:18;;;;;;;19.57;14.83;;;0.40;99.90;;;;;;5099734;28;20234;-75
2022/12/08 03:36:48;;;;;;;19.87;14.63;;;0.40;99.90;;;;;;5097674;28;20233;-76
2022/12/08 03:39:16;;;;;;;18.53;14.03;;;0.40;99.90;;;;;;5092817;28;20207;-75
2022/12/08 03:41:44;;;;;;;18.67;14.57;;;0.50;99.90;;;;;;5099130;28;20452;-77
2022/12/08 03:44:12;;;;;;;17.87;13.90;;;0.50;99.90;;;;;;5098294;28;20449;-78
2022/12/08 03:46:41;;;;;;;20.00;14.63;;;0.50;99.90;;;;;;5097788;28;20301;-75
2022/12/08 03:49:09;;;;;;;19.67;13.97;;;0.50;99.90;;;;;;5098042;28;20222;-76
2022/12/08 03:51:37;;;;;;;19.63;14.40;;;0.60;99.90;;;;;;5095038;28;20227;-75
2022/12/08 03:54:06;;;;;;;20.03;14.77;;;0.50;99.90;;;;;;5094780;28;20492;-76
2022/12/08 03:56:37;;;;;;;20.43;14.10;;;0.50;99.90;;;;;;5094018;28;20653;-75
2022/12/08 03:59:06;;;;;;;22.03;14.07;;;0.60;99.90;;;;;;5094806;28;20214;-75
2022/12/08 04:01:34;;;;;;;19.07;15.03;;;0.60;99.90;;;;;;5094178;28;20214;-75
2022/12/08 04:04:02;;;;;;;22.47;15.07;;;0.60;99.90;;;;;;5094600;28;20203;-76
2022/12/08 04:06:31;;;;;;;19.10;14.97;;;0.60;99.90;;;;;;5094319;28;20207;-75
2022/12/08 04:08:59;;;;;;;18.30;14.00;;;0.60;99.90;;;;;;5094272;28;20444;-76
2022/12/08 04:11:28;;;;;;;19.57;14.60;;;0.50;99.90;;;;;;5093788;28;20453;-75
2022/12/08 04:13:56;;;;;;;19.57;14.37;;;0.60;99.90;;;;;;5093556;28;20230;-77
2022/12/08 04:16:26;;;;;;;20.70;15.03;;;0.60;99.90;;;;;;5073311;28;20438;-76
2022/12/08 04:18:55;;;;;;;20.47;14.27;;;0.50;99.90;;;;;;5073348;28;20222;-78
2022/12/08 04:21:23;;;;;;;20.17;15.30;;;0.60;99.90;;;;;;5073040;28;20253;-75
2022/12/08 04:23:52;;;;;;;22.10;15.17;;;0.70;99.90;;;;;;5090319;28;20946;-74
2022/12/08 04:26:29;;;;;;;19.97;14.70;;;0.60;99.90;;;;;;5093204;28;20186;-79
2022/12/08 04:28:57;;;;;;;20.27;14.20;;;0.70;99.90;;;;;;5093535;28;20211;-77
2022/12/08 04:31:25;;;;;;;19.70;14.60;;;0.70;99.90;;;;;;5093223;28;20233;-81
2022/12/08 04:33:53;;;;;;;18.57;14.37;;;0.70;99.90;;;;;;5093650;28;20574;-77
2022/12/08 04:36:21;;;;;;;20.23;14.70;;;0.60;99.90;;;;;;5093337;28;20226;-80
2022/12/08 04:38:49;;;;;;;19.00;13.97;;;0.60;99.90;;;;;;5093071;28;20660;-75
2022/12/08 04:41:18;;;;;;;19.93;15.23;;;0.70;99.90;;;;;;5092774;28;20472;-77
2022/12/08 04:43:47;;;;;;;19.40;14.63;;;0.60;99.90;;;;;;5092801;28;20460;-80
2022/12/08 04:46:15;;;;;;;18.83;15.10;;;0.60;99.90;;;;;;5093202;28;20210;-80
2022/12/08 04:48:44;;;;;;;21.30;14.57;;;0.70;99.90;;;;;;5092291;28;20231;-78
2022/12/08 04:51:16;;;;;;;19.43;14.73;;;0.60;99.90;;;;;;5092490;28;20268;-80
2022/12/08 04:53:45;;;;;;;20.53;14.93;;;0.70;99.90;;;;;;5087448;28;20226;-80
2022/12/08 04:56:14;;;;;;;19.63;14.73;;;0.60;99.90;;;;;;5091878;28;20207;-81
2022/12/08 04:58:43;;;;;;;19.73;14.50;;;0.60;99.90;;;;;;5092461;28;20203;-80
2022/12/08 05:01:13;;;;;;;20.60;14.83;;;0.70;99.90;;;;;;5092424;28;20207;-79
2022/12/08 05:03:41;;;;;;;21.53;14.67;;;0.70;99.90;;;;;;5086201;28;20210;-78
2022/12/08 05:06:12;;;;;;;20.17;14.70;;;0.70;99.90;;;;;;5091966;28;20203;-82
2022/12/08 05:08:40;;;;;;;20.73;15.80;;;0.70;99.90;;;;;;5083668;28;20191;-80
2022/12/08 05:11:10;;;;;;;20.83;15.23;;;0.70;99.90;;;;;;5093241;28;20199;-77
2022/12/08 05:13:38;;;;;;;20.10;15.00;;;0.60;99.90;;;;;;5092484;28;20222;-79
2022/12/08 05:16:09;;;;;;;21.67;15.13;;;0.70;99.90;;;;;;5074259;28;20211;-75
2022/12/08 05:18:39;;;;;;;21.30;16.50;;;0.70;99.90;;;;;;5072319;28;20235;-78
2022/12/08 05:21:08;;;;;;;19.23;14.63;;;0.70;99.90;;;;;;5072301;28;20692;-77
2022/12/08 05:23:37;;;;;;;20.33;15.73;;;0.70;99.90;;;;;;5080955;28;20206;-76
2022/12/08 05:26:06;;;;;;;20.77;15.90;;;0.70;99.90;;;;;;5093568;28;20556;-77
2022/12/08 05:28:34;;;;;;;18.70;14.50;;;0.70;99.90;;;;;;5092325;28;20211;-80
2022/12/08 05:31:11;;;;;;;20.40;15.43;;;0.70;99.90;;;;;;5087340;28;20622;-81
2022/12/08 05:33:41;;;;;;;21.83;15.57;;;0.70;99.90;;;;;;5071875;28;20340;-79
2022/12/08 05:36:11;;;;;;;21.47;15.57;;;0.70;99.90;;;;;;5072449;28;20212;-80
2022/12/08 05:38:40;;;;;;;20.73;15.13;;;0.60;99.90;;;;;;5072126;28;20303;-76
2022/12/08 05:41:09;;;;;;;21.77;15.60;;;0.60;99.90;;;;;;5079012;28;20203;-80
2022/12/08 05:43:37;;;;;;;21.37;16.13;;;0.60;99.90;;;;;;5091555;28;20467;-82
2022/12/08 05:46:06;;;;;;;22.47;15.60;;;0.70;99.90;;;;;;5093109;28;20613;-78
2022/12/08 05:48:35;;;;;;;20.20;15.67;;;0.70;99.90;;;;;;5092363;28;20268;-81
2022/12/08 05:51:07;;;;;;;21.67;17.27;;;0.70;99.90;;;;;;5085904;28;20231;-77
2022/12/08 05:53:35;;;;;;;23.57;16.73;;;0.70;99.90;;;;;;5091819;28;20233;-78
2022/12/08 05:56:03;;;;;;;21.77;15.83;;;0.70;99.90;;;;;;5091875;28;20440;-81
2022/12/08 05:58:39;;;;;;;22.73;16.03;;;0.70;99.90;;;;;;5080820;28;20461;-77
2022/12/08 06:01:07;;;;;;;20.90;15.90;;;0.70;99.90;;;;;;5093743;28;20532;-74
2022/12/08 06:03:35;;;;;;;20.27;14.80;;;0.70;99.90;;;;;;5095873;28;20773;-81
2022/12/08 06:06:06;;;;;;;20.27;16.17;;;0.70;99.90;;;;;;5095786;28;20459;-81
2022/12/08 06:08:34;;;;;;;20.80;15.53;;;0.70;99.90;;;;;;5083514;28;20461;-80
2022/12/08 06:11:02;;;;;;;24.07;17.13;;;0.80;99.90;;;;;;5075663;28;20449;-81
2022/12/08 06:13:30;;;;;;;21.87;16.73;;;0.80;99.90;;;;;;5075206;28;20223;-78
2022/12/08 06:16:05;;;;;;;21.67;15.80;;;0.70;99.90;;;;;;5075960;28;20208;-80
2022/12/08 06:18:33;;;;;;;22.43;16.03;;;0.80;99.90;;;;;;5075062;28;20432;-81
2022/12/08 06:21:06;;;;;;;21.00;15.90;;;0.80;99.90;;;;;;5075452;28;20504;-79
2022/12/08 06:23:35;;;;;;;22.03;16.20;;;0.80;99.90;;;;;;5075332;28;20856;-80
2022/12/08 06:26:04;;;;;;;23.07;16.43;;;0.80;99.90;;;;;;5075107;28;20939;-77
2022/12/08 06:28:33;;;;;;;21.50;16.20;;;0.80;99.90;;;;;;5075212;28;20214;-76
2022/12/08 06:31:07;;;;;;;22.63;16.47;;;0.80;99.90;;;;;;5075167;28;20219;-76
2022/12/08 06:33:36;;;;;;;22.03;15.57;;;0.80;99.90;;;;;;5074867;28;20210;-75
2022/12/08 06:36:06;;;;;;;23.73;17.77;;;0.80;99.90;;;;;;5075020;28;20329;-78
2022/12/08 06:38:34;;;;;;;28.03;19.40;;;0.80;99.90;;;;;;5084213;28;20218;-76
2022/12/08 06:41:08;;;;;;;25.37;19.33;;;0.80;99.90;;;;;;5095814;28;20452;-78
2022/12/08 06:43:36;;;;;;;23.77;18.20;;;0.80;99.90;;;;;;5095732;28;20205;-74
2022/12/08 06:46:07;;;;;;;21.67;17.23;;;0.70;99.90;;;;;;5095448;28;20339;-77
2022/12/08 06:48:35;;;;;;;25.47;17.93;;;0.70;99.90;;;;;;5095709;28;20202;-79
2022/12/08 06:51:10;;;;;;;23.70;18.33;;;0.80;99.90;;;;;;5095167;28;20806;-75
2022/12/08 06:53:39;;;;;;;23.70;18.67;;;0.70;99.90;;;;;;5095288;28;20467;-79
2022/12/08 06:56:09;;;;;;;24.17;17.83;;;0.70;99.90;;;;;;5094091;28;20484;-73
2022/12/08 06:58:38;;;;;;;26.23;18.93;;;0.70;99.90;;;;;;5095263;28;20253;-78
2022/12/08 07:01:08;;;;;;;23.90;18.83;;;0.80;99.90;;;;;;5096097;28;20217;-78
2022/12/08 07:03:38;;;;;;;24.67;18.73;;;0.70;99.90;;;;;;5097165;28;20473;-75
2022/12/08 07:06:08;;;;;;;30.33;24.97;;;0.80;99.90;;;;;;5096218;28;20433;-76
2022/12/08 07:08:36;;;;;;;42.23;34.20;;;0.70;99.90;;;;;;5095527;28;20202;-79
2022/12/08 07:11:08;;;;;;;26.53;20.30;;;0.80;99.90;;;;;;5095146;28;20207;-74
2022/12/08 07:13:36;;;;;;;26.53;18.93;;;0.80;99.90;;;;;;5093220;28;20211;-77
2022/12/08 07:16:06;;;;;;;25.50;18.70;;;0.70;99.90;;;;;;5094830;28;20971;-76
2022/12/08 07:18:35;;;;;;;23.10;18.00;;;0.80;99.90;;;;;;5095266;28;20205;-76
2022/12/08 07:21:05;;;;;;;23.63;17.53;;;0.80;99.90;;;;;;5094777;28;20455;-77
2022/12/08 07:23:35;;;;;;;25.97;17.03;;;0.80;99.90;;;;;;5095336;28;20207;-77
2022/12/08 07:26:06;;;;;;;24.53;18.27;;;0.90;99.90;;;;;;5094999;28;20216;-74
2022/12/08 07:28:37;;;;;;;22.27;17.50;;;0.90;99.90;;;;;;5095301;28;20296;-74
2022/12/08 07:31:05;;;;;;;23.43;17.73;;;0.90;99.90;;;;;;5094055;28;20575;-76
2022/12/08 07:33:34;;;;;;;22.20;16.93;;;0.90;99.90;;;;;;5094633;28;20206;-76
2022/12/08 07:36:05;;;;;;;23.77;17.07;;;1.00;99.90;;;;;;5095211;28;20226;-79
2022/12/08 07:38:35;;;;;;;23.13;17.43;;;0.90;99.90;;;;;;5095663;28;20480;-79
2022/12/08 07:41:04;;;;;;;25.40;17.87;;;0.90;99.90;;;;;;5095154;28;20249;-78
2022/12/08 07:43:32;;;;;;;24.40;17.17;;;1.10;99.90;;;;;;5094910;28;20325;-75
2022/12/08 07:46:00;;;;;;;22.10;16.37;;;1.20;99.90;;;;;;5094450;28;20229;-78
2022/12/08 07:48:28;;;;;;;26.60;19.57;;;1.20;99.90;;;;;;5090570;28;20218;-77
2022/12/08 07:51:01;;;;;;;23.20;17.40;;;1.20;99.90;;;;;;5073704;28;20318;-80
2022/12/08 07:53:29;;;;;;;21.50;16.30;;;1.30;99.90;;;;;;5073369;28;20298;-74
2022/12/08 07:55:59;;;;;;;23.37;17.43;;;1.30;99.90;;;;;;5073772;28;20266;-77
2022/12/08 07:58:27;;;;;;;23.37;17.83;;;1.40;99.90;;;;;;5075991;28;20221;-76
2022/12/08 08:00:55;;;;;;;27.23;19.53;;;1.50;99.90;;;;;;5075055;28;20302;-78
2022/12/08 08:03:23;;;;;;;24.87;18.70;;;1.50;99.90;;;;;;5077333;28;20210;-78
2022/12/08 08:05:52;;;;;;;24.93;18.50;;;1.50;99.90;;;;;;5086185;28;20651;-77
2022/12/08 08:08:20;;;;;;;26.23;19.07;;;1.50;99.90;;;;;;5081476;28;20238;-81
2022/12/08 08:10:48;;;;;;;24.27;17.80;;;1.50;99.90;;;;;;5094095;28;20207;-79
2022/12/08 08:13:18;;;;;;;23.73;18.33;;;1.60;99.90;;;;;;5093629;28;20242;-79
2022/12/08 08:15:46;;;;;;;21.27;16.63;;;1.60;99.90;;;;;;5093713;28;20237;-81
2022/12/08 08:18:15;;;;;;;25.02;20.00;;;1.70;99.90;;;;;;5080198;28;20442;-80
2022/12/08 08:20:43;;;;;;;22.40;18.50;;;1.80;99.90;;;;;;5073251;28;20208;-82
2022/12/08 08:23:11;;;;;;;21.50;17.10;;;1.80;99.90;;;;;;5072790;28;20199;-79
2022/12/08 08:25:39;;;;;;;19.67;16.20;;;1.80;99.90;;;;;;5073374;28;20203;-80
2022/12/08 08:28:07;;;;;;;21.43;17.13;;;1.90;99.90;;;;;;5093424;28;20354;-79
2022/12/08 08:30:37;;;;;;;23.60;17.27;;;1.90;99.90;;;;;;5092766;28;20215;-77
2022/12/08 08:33:05;;;;;;;21.93;16.57;;;2.00;99.90;;;;;;5093193;28;20213;-75
2022/12/08 08:35:33;;;;;;;21.53;17.40;;;1.90;99.90;;;;;;5092777;28;20250;-78
2022/12/08 08:38:01;;;;;;;21.57;16.67;;;1.90;99.90;;;;;;5092729;28;20207;-80
2022/12/08 08:40:29;;;;;;;19.93;16.53;;;2.00;99.90;;;;;;5092852;28;20680;-76
2022/12/08 08:43:00;;;;;;;21.37;16.73;;;2.10;99.90;;;;;;5093124;28;20211;-79
2022/12/08 08:45:28;;;;;;;22.97;18.47;;;2.10;99.90;;;;;;5093501;28;20199;-80
2022/12/08 08:47:58;;;;;;;22.40;18.60;;;2.20;99.90;;;;;;5073252;28;20242;-79
2022/12/08 08:50:26;;;;;;;21.03;16.73;;;2.10;99.90;;;;;;5092257;28;20219;-81
2022/12/08 08:52:57;;;;;;;20.23;15.60;;;2.70;99.90;;;;;;5092384;28;20596;-79
2022/12/08 08:55:25;;;;;;;19.00;14.60;;;4.40;99.90;;;;;;5091642;28;20237;-79
2022/12/08 08:57:53;;;;;;;18.23;14.33;;;4.10;99.90;;;;;;5090659;28;20221;-81
2022/12/08 09:00:22;;;;;;;20.93;15.90;;;3.80;99.90;;;;;;5090490;28;20546;-77
2022/12/08 09:02:50;;;;;;;20.90;15.10;;;3.30;99.90;;;;;;5090411;28;20213;-78
2022/12/08 09:05:20;;;;;;;22.17;16.17;;;3.10;99.90;;;;;;5090499;28;20542;-76
2022/12/08 09:07:49;;;;;;;20.93;16.27;;;2.90;99.90;;;;;;5099475;28;20254;-77
2022/12/08 09:10:17;;;;;;;21.13;16.67;;;2.90;99.90;;;;;;5092737;28;20267;-76
2022/12/08 09:12:45;;;;;;;21.07;16.67;;;2.80;99.90;;;;;;5091707;28;20225;-77
2022/12/08 09:15:13;;;;;;;21.30;17.07;;;2.90;99.90;;;;;;5090814;28;20423;-76
2022/12/08 09:17:41;;;;;;;21.23;15.67;;;2.90;99.90;;;;;;5092206;28;20211;-80
2022/12/08 09:20:10;;;;;;;21.50;16.17;;;2.90;99.90;;;;;;5092520;28;20302;-81
2022/12/08 09:22:39;;;;;;;19.17;15.33;;;3.00;99.90;;;;;;5091905;28;20289;-79
2022/12/08 09:25:08;;;;;;;21.40;16.43;;;3.20;99.90;;;;;;5092940;28;20207;-76
2022/12/08 09:27:36;;;;;;;22.37;17.30;;;3.20;99.90;;;;;;5092477;28;20223;-75
2022/12/08 09:30:05;;;;;;;23.10;17.30;;;3.20;99.90;;;;;;5096875;28;20218;-74
2022/12/08 09:32:34;;;;;;;23.10;16.47;;;3.30;99.90;;;;;;5098569;28;20260;-75
2022/12/08 09:35:02;;;;;;;20.87;16.47;;;3.20;99.90;;;;;;5095028;28;20202;-77
2022/12/08 09:37:30;;;;;;;20.83;16.87;;;3.20;99.90;;;;;;5096653;28;20233;-79
2022/12/08 09:40:00;;;;;;;20.03;16.67;;;3.20;99.90;;;;;;5087984;28;20207;-78
2022/12/08 09:42:35;;;;;;;24.53;16.80;;;3.30;99.90;;;;;;5093495;28;20210;-79
2022/12/08 09:45:09;;;;;;;22.03;16.80;;;3.30;99.90;;;;;;5096056;28;20206;-81
2022/12/08 09:47:42;;;;;;;22.90;16.37;;;3.50;99.90;;;;;;5096050;28;20280;-81
2022/12/08 09:50:15;;;;;;;20.80;16.63;;;3.80;99.90;;;;;;5095582;28;20190;-79
2022/12/08 09:52:49;;;;;;;20.80;16.67;;;3.70;99.90;;;;;;5094916;28;20219;-77
2022/12/08 09:55:24;;;;;;;24.40;17.23;;;3.80;99.90;;;;;;5095591;28;20285;-80
2022/12/08 09:58:00;;;;;;;23.10;17.80;;;3.90;99.90;;;;;;5093450;28;20202;-76
2022/12/08 10:00:29;;;;;;;22.10;17.57;;;3.70;99.90;;;;;;5090751;28;20230;-75
2022/12/08 10:02:58;;;;;;;21.10;16.70;;;3.90;99.90;;;;;;5095382;28;20214;-79
2022/12/08 10:05:28;;;;;;;22.63;17.10;;;3.80;99.90;;;;;;5093954;28;20707;-75
2022/12/08 10:08:05;;;;;;;23.13;17.43;;;3.90;99.90;;;;;;5096377;28;20256;-75
2022/12/08 10:10:41;;;;;;;23.37;18.23;;;4.00;99.90;;;;;;5096187;28;20649;-80
2022/12/08 10:13:20;;;;;;;21.23;17.33;;;3.90;99.90;;;;;;5095185;28;20198;-73
2022/12/08 10:15:57;;;;;;;24.47;17.57;;;3.80;99.90;;;;;;5096067;28;20203;-78
2022/12/08 10:18:30;;;;;;;22.03;16.80;;;4.00;99.90;;;;;;5095851;28;20205;-76
2022/12/08 10:21:10;;;;;;;26.90;18.03;;;4.10;99.90;;;;;;5095679;28;20197;-77
2022/12/08 10:23:41;;;;;;;24.33;18.97;;;4.10;99.90;;;;;;5095513;28;20213;-77
2022/12/08 10:26:15;;;;;;;22.80;17.83;;;4.20;99.90;;;;;;5086612;28;20206;-79
2022/12/08 10:28:43;;;;;;;24.40;18.37;;;4.30;99.90;;;;;;5094209;28;20227;-79
2022/12/08 10:31:23;;;;;;;24.53;18.23;;;4.10;99.90;;;;;;5080741;28;20199;-80
2022/12/08 10:33:59;;;;;;;22.93;17.67;;;4.10;99.90;;;;;;5075718;28;20198;-79
2022/12/08 10:36:46;;;;;;;19.17;16.20;;;4.20;99.90;;;;;;5092535;28;20326;-75
2022/12/08 10:39:32;;;;;;;22.07;16.90;;;4.30;99.90;;;;;;5089380;28;20228;-74
2022/12/08 10:42:09;;;;;;;22.43;16.97;;;4.50;99.90;;;;;;5094112;28;20202;-75
2022/12/08 10:44:53;;;;;;;19.50;16.33;;;4.50;99.90;;;;;;5085164;28;20737;-77
2022/12/08 10:47:24;;;;;;;21.27;16.57;;;4.20;99.90;;;;;;5094541;28;20213;-80
2022/12/08 10:50:08;;;;;;;21.13;16.40;;;4.20;99.90;;;;;;5089689;28;20200;-77
2022/12/08 10:52:41;;;;;;;21.50;16.93;;;4.40;99.90;;;;;;5085879;28;20741;-80
2022/12/08 10:55:15;;;;;;;19.87;16.50;;;4.30;99.90;;;;;;5093326;28;20195;-79
2022/12/08 10:57:47;;;;;;;19.80;16.27;;;4.40;99.90;;;;;;5075497;28;20244;-80
2022/12/08 11:00:19;;;;;;;22.17;16.23;;;4.20;99.90;;;;;;5090808;28;20329;-79
2022/12/08 11:02:55;;;;;;;25.10;17.97;;;4.10;99.90;;;;;;5091335;28;20207;-74
2022/12/08 11:05:28;;;;;;;20.30;16.00;;;3.90;99.90;;;;;;5090712;28;20201;-74
2022/12/08 11:07:57;;;;;;;21.80;15.93;;;4.00;99.90;;;;;;5082783;28;20241;-74
2022/12/08 11:10:32;;;;;;;20.13;16.17;;;4.10;99.90;;;;;;5087303;28;20298;-76
2022/12/08 11:13:06;;;;;;;22.27;17.20;;;4.00;99.90;;;;;;5075339;28;20195;-75
2022/12/08 11:15:37;;;;;;;21.60;16.93;;;4.00;99.90;;;;;;5083658;28;20211;-76
2022/12/08 11:18:21;;;;;;;20.57;15.93;;;3.80;99.90;;;;;;5085459;28;20317;-74
2022/12/08 11:20:58;;;;;;;21.57;16.83;;;4.00;99.90;;;;;;5076511;28;20192;-73
2022/12/08 11:23:27;;;;;;;21.83;17.03;;;3.90;99.90;;;;;;5092856;28;20202;-76
2022/12/08 11:26:02;;;;;;;21.20;16.00;;;3.90;99.90;;;;;;5094761;28;20199;-75
2022/12/08 11:28:32;;;;;;;22.77;17.03;;;4.00;99.90;;;;;;5093668;28;20195;-77
2022/12/08 11:31:06;;;;;;;22.17;17.37;;;4.00;99.90;;;;;;5092761;28;20203;-75
2022/12/08 11:33:35;;;;;;;19.77;16.30;;;4.10;99.90;;;;;;5091269;28;20222;-75
2022/12/08 11:36:07;;;;;;;21.40;16.60;;;4.00;99.90;;;;;;5092574;28;20231;-75
2022/12/08 11:38:41;;;;;;;20.37;16.50;;;4.10;99.90;;;;;;5074131;28;20320;-76
2022/12/08 11:41:12;;;;;;;20.03;15.63;;;4.20;99.90;;;;;;5081476;28;20632;-74
2022/12/08 11:43:52;;;;;;;20.03;16.13;;;4.10;99.90;;;;;;5094300;28;20194;-74
2022/12/08 11:46:23;;;;;;;19.77;15.33;;;4.20;99.90;;;;;;5095260;28;20197;-75
2022/12/08 11:48:58;;;;;;;19.03;15.60;;;4.20;99.90;;;;;;5094170;28;20195;-76
2022/12/08 11:51:37;;;;;;;18.03;15.33;;;4.30;99.90;;;;;;5084794;28;20586;-76
2022/12/08 11:54:22;;;;;;;19.97;15.17;;;4.40;99.90;;;;;;5093558;28;20219;-74
2022/12/08 11:56:53;;;;;;;19.30;14.83;;;4.20;99.90;;;;;;5096417;28;20233;-75
2022/12/08 11:59:29;;;;;;;20.50;15.17;;;4.10;99.90;;;;;;5099578;28;20562;-76
2022/12/08 12:01:58;;;;;;;19.30;15.07;;;4.10;99.90;;;;;;5093576;28;20653;-75
2022/12/08 12:04:33;;;;;;;19.83;14.80;;;4.10;99.90;;;;;;5094323;28;20214;-75
2022/12/08 12:07:21;;;;;;;23.73;16.27;;;3.90;99.90;;;;;;5092885;28;20222;-75
2022/12/08 12:10:07;;;;;;;21.33;16.37;;;3.80;99.90;;;;;;5076494;28;20210;-77
2022/12/08 12:12:50;;;;;;;21.00;16.97;;;4.10;99.90;;;;;;5089754;28;20560;-76
2022/12/08 12:16:08;;;;;;;23.03;16.47;;;4.10;99.90;;;;;;5090872;28;20728;-74
2022/12/08 12:18:45;;;;;;;20.67;16.17;;;4.00;99.90;;;;;;5090197;28;20264;-76
2022/12/08 12:21:18;;;;;;;23.47;15.03;;;4.00;99.90;;;;;;5091912;28;20206;-75
2022/12/08 12:23:53;;;;;;;20.27;16.03;;;4.00;99.90;;;;;;5091610;28;20297;-75
2022/12/08 12:26:25;;;;;;;19.70;15.47;;;4.00;99.90;;;;;;5091589;28;20203;-74
2022/12/08 12:28:57;;;;;;;19.13;15.87;;;4.00;99.90;;;;;;5077633;28;20229;-79
2022/12/08 12:31:30;;;;;;;20.20;16.30;;;4.10;99.90;;;;;;5091387;28;20732;-74
2022/12/08 12:34:08;;;;;;;21.60;16.53;;;4.10;99.90;;;;;;5086317;28;20241;-74
2022/12/08 12:36:50;;;;;;;34.37;23.27;;;4.00;99.90;;;;;;5090468;28;20198;-75
2022/12/08 12:39:23;;;;;;;22.60;16.77;;;3.90;99.90;;;;;;5080783;28;20227;-74
2022/12/08 12:41:55;;;;;;;26.67;19.83;;;3.70;99.90;;;;;;5096350;28;20548;-74
2022/12/08 12:44:43;;;;;;;20.77;15.90;;;3.80;99.90;;;;;;5105200;28;20266;-76
2022/12/08 12:47:14;;;;;;;22.73;16.50;;;3.90;99.90;;;;;;5099986;28;20207;-76
2022/12/08 12:50:08;;;;;;;23.50;16.30;;;3.90;99.90;;;;;;5109325;28;20206;-76
2022/12/08 12:52:38;;;;;;;21.23;16.17;;;3.90;99.90;;;;;;5054323;28;20211;-76
2022/12/08 12:55:27;;;;;;;22.93;15.50;;;4.00;99.90;;;;;;5077815;28;20211;-75
2022/12/08 12:57:57;;;;;;;21.97;16.00;;;4.00;99.90;;;;;;5095498;28;20269;-75
2022/12/08 13:00:27;;;;;;;32.97;20.40;;;4.00;99.90;;;;;;5084911;28;20211;-75
2022/12/08 13:02:58;;;;;;;23.37;17.23;;;4.00;99.90;;;;;;5092809;28;20217;-76